createdAt,value
2023-04-23T00:02:03.118Z,100243.90
2023-04-23T00:04:42.445Z,100241.32
2023-04-23T00:07:16.542Z,100242.19
2023-04-23T00:09:54.161Z,100241.31
2023-04-23T00:12:28.031Z,100240.47
2023-04-23T00:15:06.156Z,100237.85
2023-04-23T00:17:40.354Z,100239.60
2023-04-23T00:20:13.988Z,100232.67
2023-04-23T00:22:46.360Z,100231.81
2023-04-23T00:25:19.170Z,100232.67
2023-04-23T00:27:51.495Z,100231.81
2023-04-23T00:30:24.250Z,100230.08
2023-04-23T00:32:59.320Z,100230.09
2023-04-23T00:35:32.005Z,100228.38
2023-04-23T00:38:05.413Z,100226.64
2023-04-23T00:40:38.386Z,100225.78
2023-04-23T00:43:11.787Z,100224.91
2023-04-23T00:45:45.609Z,100226.64
2023-04-23T00:48:18.416Z,100224.05
2023-04-23T00:50:51.700Z,100219.75
2023-04-23T00:53:23.901Z,100229.27
2023-04-23T00:55:56.453Z,100227.52
2023-04-23T00:58:29.047Z,100230.99
2023-04-23T01:01:04.999Z,100234.45
2023-04-23T01:03:41.175Z,100234.45
2023-04-23T01:06:14.519Z,100231.86
2023-04-23T01:08:48.463Z,100231.88
2023-04-23T01:11:23.003Z,100234.46
2023-04-23T01:13:55.825Z,100234.47
2023-04-23T01:16:29.743Z,100230.13
2023-04-23T01:19:02.470Z,100227.56
2023-04-23T01:21:38.022Z,100236.19
2023-04-23T01:24:11.303Z,100235.34
2023-04-23T01:26:45.231Z,100239.64
2023-04-23T01:29:18.407Z,100231.88
2023-04-23T01:31:52.412Z,100224.94
2023-04-23T01:34:25.280Z,100236.17
2023-04-23T01:36:59.032Z,100230.98
2023-04-23T01:39:32.048Z,100231.86
2023-04-23T01:42:08.562Z,100231.01
2023-04-23T01:44:41.206Z,100230.14
2023-04-23T01:47:14.938Z,100231.01
2023-04-23T01:49:47.241Z,100230.14
2023-04-23T01:52:20.251Z,100231.86
2023-04-23T01:54:52.785Z,100231.87
2023-04-23T01:57:27.200Z,100232.72
2023-04-23T02:00:08.393Z,100231.85
2023-04-23T02:02:47.731Z,100233.57
2023-04-23T02:05:22.966Z,100236.17
2023-04-23T02:07:55.418Z,100236.16
2023-04-23T02:10:27.731Z,100230.98
2023-04-23T02:13:00.797Z,100230.96
2023-04-23T02:15:38.184Z,100234.41
2023-04-23T02:18:11.348Z,100230.09
2023-04-23T02:20:45.338Z,100235.29
2023-04-23T02:23:18.102Z,100230.97
2023-04-23T02:25:51.434Z,100231.80
2023-04-23T02:28:24.040Z,100228.34
2023-04-23T02:30:56.464Z,100230.94
2023-04-23T02:33:28.987Z,100230.95
2023-04-23T02:36:02.190Z,100231.77
2023-04-23T02:38:34.919Z,100225.72
2023-04-23T02:41:07.973Z,100226.58
2023-04-23T02:43:42.279Z,100234.36
2023-04-23T02:46:15.257Z,100229.15
2023-04-23T02:48:47.555Z,100226.56
2023-04-23T02:51:20.035Z,100215.33
2023-04-23T02:53:52.917Z,100228.28
2023-04-23T02:56:26.816Z,100219.63
2023-04-23T02:58:59.728Z,100223.09
2023-04-23T03:01:32.373Z,100226.54
2023-04-23T03:04:05.838Z,100222.22
2023-04-23T03:06:38.593Z,100227.41
2023-04-23T03:09:12.302Z,100224.80
2023-04-23T03:11:44.893Z,100227.39
2023-04-23T03:14:19.350Z,100217.89
2023-04-23T03:16:52.234Z,100221.34
2023-04-23T03:19:27.677Z,100219.61
2023-04-23T03:22:01.087Z,100210.11
2023-04-23T03:24:34.198Z,100216.99
2023-04-23T03:27:08.457Z,100216.14
2023-04-23T03:29:44.529Z,100213.55
2023-04-23T03:32:17.067Z,100219.58
2023-04-23T03:34:49.445Z,100217.02
2023-04-23T03:37:22.973Z,100211.84
2023-04-23T03:39:55.910Z,100213.57
2023-04-23T03:42:28.662Z,100206.64
2023-04-23T03:45:02.211Z,100210.13
2023-04-23T03:47:37.972Z,100210.11
2023-04-23T03:50:14.683Z,100217.05
2023-04-23T03:52:48.087Z,100210.13
2023-04-23T03:55:26.889Z,100208.43
2023-04-23T03:58:01.866Z,100211.01
2023-04-23T04:00:47.485Z,100210.16
2023-04-23T04:03:20.292Z,100212.77
2023-04-23T04:05:53.608Z,100218.84
2023-04-23T04:08:26.845Z,100217.99
2023-04-23T04:11:00.390Z,100221.46
2023-04-23T04:13:32.993Z,100224.08
2023-04-23T04:16:06.034Z,100222.36
2023-04-23T04:18:39.519Z,100226.67
2023-04-23T04:21:12.704Z,100221.50
2023-04-23T04:23:45.657Z,100217.59
2023-04-23T04:26:20.931Z,100210.37
2023-04-23T04:28:53.621Z,100206.98
2023-04-23T04:31:28.836Z,100211.08
2023-04-23T04:34:01.956Z,100212.20
2023-04-23T04:36:38.255Z,100211.55
2023-04-23T04:39:13.750Z,100203.27
2023-04-23T04:41:50.491Z,100204.48
2023-04-23T04:44:26.690Z,100203.78
2023-04-23T04:46:59.409Z,100198.30
2023-04-23T04:49:32.376Z,100200.84
2023-04-23T04:52:10.828Z,100199.98
2023-04-23T04:54:43.380Z,100193.28
2023-04-23T04:57:17.163Z,100203.14
2023-04-23T04:59:50.448Z,100192.63
2023-04-23T05:02:23.897Z,100190.30
2023-04-23T05:04:56.491Z,100189.45
2023-04-23T05:07:31.962Z,100186.30
2023-04-23T05:10:04.240Z,100188.56
2023-04-23T05:12:42.004Z,100187.84
2023-04-23T05:15:15.621Z,100196.05
2023-04-23T05:17:46.380Z,100189.88
2023-04-23T05:20:19.164Z,100193.73
2023-04-23T05:23:00.026Z,100189.67
2023-04-23T05:25:34.680Z,100188.17
2023-04-23T05:28:10.024Z,100187.02
2023-04-23T05:30:44.020Z,100183.05
2023-04-23T05:33:21.275Z,100185.11
2023-04-23T05:35:55.700Z,100179.86
2023-04-23T05:38:28.130Z,100189.36
2023-04-23T05:41:00.570Z,100179.34
2023-04-23T05:43:33.757Z,100179.65
2023-04-23T05:46:07.793Z,100183.17
2023-04-23T05:48:43.389Z,100182.50
2023-04-23T05:51:16.023Z,100187.50
2023-04-23T05:53:48.654Z,100189.88
2023-04-23T05:56:21.277Z,100185.90
2023-04-23T05:58:54.746Z,100184.65
2023-04-23T06:01:27.257Z,100191.81
2023-04-23T06:04:00.590Z,100184.60
2023-04-23T06:06:36.010Z,100189.03
2023-04-23T06:09:09.482Z,100190.67
2023-04-23T06:11:42.146Z,100185.58
2023-04-23T06:14:15.285Z,100187.72
2023-04-23T06:16:53.621Z,100185.97
2023-04-23T06:19:27.563Z,100189.48
2023-04-23T06:22:00.385Z,100187.46
2023-04-23T06:24:33.120Z,100195.42
2023-04-23T06:27:05.810Z,100194.68
2023-04-23T06:29:41.902Z,100193.34
2023-04-23T06:32:17.278Z,100194.98
2023-04-23T06:35:00.960Z,100193.53
2023-04-23T06:37:39.477Z,100187.76
2023-04-23T06:40:14.316Z,100188.19
2023-04-23T06:42:48.191Z,100182.58
2023-04-23T06:45:21.225Z,100173.02
2023-04-23T06:47:53.877Z,100175.72
2023-04-23T06:50:26.637Z,100172.48
2023-04-23T06:53:00.903Z,100170.38
2023-04-23T06:55:38.567Z,100177.22
2023-04-23T06:58:12.750Z,100178.91
2023-04-23T07:00:48.287Z,100171.48
2023-04-23T07:03:22.041Z,100170.83
2023-04-23T07:05:54.830Z,100171.78
2023-04-23T07:08:27.508Z,100172.93
2023-04-23T07:11:00.286Z,100169.83
2023-04-23T07:13:33.817Z,100159.61
2023-04-23T07:16:06.770Z,100156.22
2023-04-23T07:18:40.684Z,100147.62
2023-04-23T07:21:13.302Z,100157.67
2023-04-23T07:23:46.185Z,100154.33
2023-04-23T07:26:18.853Z,100150.25
2023-04-23T07:28:53.000Z,100152.74
2023-04-23T07:31:26.862Z,100153.52
2023-04-23T07:33:59.313Z,100150.77
2023-04-23T07:36:34.175Z,100141.59
2023-04-23T07:39:07.777Z,100149.64
2023-04-23T07:41:44.462Z,100143.06
2023-04-23T07:44:16.980Z,100143.78
2023-04-23T07:46:49.922Z,100141.48
2023-04-23T07:49:25.869Z,100146.67
2023-04-23T07:51:58.538Z,100147.09
2023-04-23T07:54:30.947Z,100143.07
2023-04-23T07:57:04.443Z,100141.87
2023-04-23T07:59:36.724Z,100138.16
2023-04-23T08:02:12.565Z,100145.94
2023-04-23T08:04:45.201Z,100140.45
2023-04-23T08:07:18.103Z,100138.41
2023-04-23T08:09:50.586Z,100141.55
2023-04-23T08:12:27.297Z,100134.24
2023-04-23T08:14:59.734Z,100134.64
2023-04-23T08:17:36.573Z,100133.05
2023-04-23T08:20:11.673Z,100132.81
2023-04-23T08:22:46.956Z,100134.40
2023-04-23T08:25:19.693Z,100131.14
2023-04-23T08:27:52.814Z,100128.13
2023-04-23T08:30:25.229Z,100134.58
2023-04-23T08:32:58.503Z,100130.44
2023-04-23T08:35:32.380Z,100122.81
2023-04-23T08:38:07.233Z,100122.19
2023-04-23T08:40:43.747Z,100129.67
2023-04-23T08:43:21.176Z,100124.95
2023-04-23T08:45:54.582Z,100119.22
2023-04-23T08:48:28.551Z,100114.63
2023-04-23T08:51:06.656Z,100116.62
2023-04-23T08:53:45.297Z,100110.05
2023-04-23T08:56:18.101Z,100108.22
2023-04-23T08:58:51.512Z,100100.83
2023-04-23T09:01:26.459Z,100091.30
2023-04-23T09:04:00.229Z,100099.94
2023-04-23T09:06:34.141Z,100097.91
2023-04-23T09:09:08.129Z,100095.41
2023-04-23T09:11:42.409Z,100090.17
2023-04-23T09:14:15.951Z,100087.91
2023-04-23T09:16:49.275Z,100080.87
2023-04-23T09:19:22.045Z,100083.69
2023-04-23T09:21:59.436Z,100084.05
2023-04-23T09:24:31.779Z,100082.70
2023-04-23T09:27:04.509Z,100084.77
2023-04-23T09:29:36.890Z,100084.02
2023-04-23T09:32:11.598Z,100079.87
2023-04-23T09:34:47.314Z,100082.72
2023-04-23T09:37:21.424Z,100078.48
2023-04-23T09:39:57.082Z,100084.34
2023-04-23T09:42:31.514Z,100068.31
2023-04-23T09:45:07.526Z,100073.14
2023-04-23T09:47:49.706Z,100062.31
2023-04-23T09:50:32.678Z,100065.17
2023-04-23T09:53:06.375Z,100061.64
2023-04-23T09:55:46.955Z,100057.69
2023-04-23T09:58:29.077Z,100051.28
2023-04-23T10:01:09.787Z,100052.34
2023-04-23T10:03:46.833Z,100059.24
2023-04-23T10:06:39.480Z,100051.47
2023-04-23T10:09:12.224Z,100044.82
2023-04-23T10:11:46.011Z,100043.02
2023-04-23T10:14:18.333Z,100039.03
2023-04-23T10:16:53.729Z,100038.64
2023-04-23T10:19:27.681Z,100028.83
2023-04-23T10:22:18.438Z,100026.58
2023-04-23T10:24:58.797Z,100022.17
2023-04-23T10:27:44.536Z,100020.23
2023-04-23T10:30:24.717Z,100017.34
2023-04-23T10:32:58.488Z,100014.63
2023-04-23T10:35:32.533Z,100007.58
2023-04-23T10:38:10.358Z,100013.25
2023-04-23T10:40:46.771Z,100016.28
2023-04-23T10:43:22.205Z,100016.77
2023-04-23T10:45:54.816Z,100006.64
2023-04-23T10:48:29.097Z,100002.87
2023-04-23T10:51:30.579Z,100007.56
2023-04-23T10:53:58.500Z,100000.59
2023-04-23T10:56:35.170Z,99993.39
2023-04-23T10:59:09.792Z,99993.36
2023-04-23T11:01:45.033Z,99998.91
2023-04-23T11:04:29.224Z,99988.20
2023-04-23T11:07:10.957Z,99980.58
2023-04-23T11:09:47.931Z,99986.36
2023-04-23T11:15:34.865Z,99984.97
2023-04-23T11:18:07.808Z,99972.28
2023-04-23T11:20:43.785Z,99975.94
2023-04-23T11:23:33.759Z,99979.97
2023-04-23T11:26:09.145Z,99982.20
2023-04-23T11:28:44.708Z,99966.40
2023-04-23T11:31:17.960Z,99970.44
2023-04-23T11:33:48.863Z,99957.20
2023-04-23T11:36:21.335Z,99960.67
2023-04-23T11:39:03.220Z,99950.19
2023-04-23T11:41:37.935Z,99950.64
2023-04-23T11:44:11.999Z,99956.33
2023-04-23T11:46:52.490Z,99956.22
2023-04-23T11:49:26.261Z,99952.85
2023-04-23T11:52:06.432Z,99952.48
2023-04-23T11:54:45.528Z,99961.66
2023-04-23T11:57:18.013Z,99948.84
2023-04-23T11:59:50.944Z,99947.09
2023-04-23T12:02:30.031Z,99950.77
2023-04-23T12:05:10.252Z,99947.37
2023-04-23T12:07:45.179Z,99958.64
2023-04-23T12:10:23.319Z,99958.09
2023-04-23T12:12:55.993Z,99952.66
2023-04-23T12:15:29.798Z,99949.59
2023-04-23T12:18:13.302Z,99950.61
2023-04-23T12:20:46.284Z,99937.99
2023-04-23T12:23:19.458Z,99944.23
2023-04-23T12:25:55.088Z,99943.59
2023-04-23T12:28:28.788Z,99934.45
2023-04-23T12:31:08.547Z,99921.62
2023-04-23T12:33:42.305Z,99922.23
2023-04-23T12:36:17.805Z,99920.64
2023-04-23T12:38:54.322Z,99917.73
2023-04-23T12:41:26.644Z,99920.64
2023-04-23T12:44:01.748Z,99916.17
2023-04-23T12:46:45.934Z,99913.75
2023-04-23T12:49:18.676Z,99915.25
2023-04-23T12:51:52.852Z,99915.53
2023-04-23T12:54:27.101Z,99910.69
2023-04-23T12:57:02.606Z,99904.42
2023-04-23T12:59:39.969Z,99905.02
2023-04-23T13:02:13.890Z,99899.56
2023-04-23T13:04:47.731Z,99900.78
2023-04-23T13:07:20.165Z,99896.50
2023-04-23T13:09:52.773Z,99891.66
2023-04-23T13:12:28.616Z,99886.66
2023-04-23T13:15:01.915Z,99884.67
2023-04-23T13:17:38.392Z,99880.16
2023-04-23T13:20:12.548Z,99878.61
2023-04-23T13:22:45.902Z,99864.41
2023-04-23T13:25:18.307Z,99864.89
2023-04-23T13:27:50.986Z,99859.06
2023-04-23T13:30:23.673Z,99860.77
2023-04-23T13:32:57.862Z,99858.23
2023-04-23T13:35:31.251Z,99859.44
2023-04-23T13:38:12.067Z,99852.33
2023-04-23T13:40:45.734Z,99858.14
2023-04-23T13:43:18.437Z,99855.84
2023-04-23T13:45:51.214Z,99865.92
2023-04-23T13:48:28.889Z,99857.33
2023-04-23T13:51:07.091Z,99861.66
2023-04-23T13:53:46.785Z,99848.92
2023-04-23T13:56:19.350Z,99845.53
2023-04-23T13:58:53.586Z,99839.35
2023-04-23T14:01:27.330Z,99834.61
2023-04-23T14:03:59.972Z,99837.27
2023-04-23T14:06:43.416Z,99821.43
2023-04-23T14:09:15.937Z,99826.11
2023-04-23T14:11:48.534Z,99816.10
2023-04-23T14:14:21.182Z,99818.03
2023-04-23T14:16:54.682Z,99829.03
2023-04-23T14:19:30.693Z,99821.50
2023-04-23T14:22:03.170Z,99813.14
2023-04-23T14:24:50.911Z,99811.92
2023-04-23T14:27:23.611Z,99806.09
2023-04-23T14:30:06.359Z,99813.55
2023-04-23T14:32:48.463Z,99810.28
2023-04-23T14:35:29.422Z,99810.38
2023-04-23T14:38:15.345Z,99802.01
2023-04-23T14:40:50.877Z,99801.53
2023-04-23T14:43:23.421Z,99805.15
2023-04-23T14:45:56.174Z,99795.34
2023-04-23T14:48:30.168Z,99798.73
2023-04-23T14:51:02.613Z,99794.38
2023-04-23T14:53:36.383Z,99789.92
2023-04-23T14:56:09.336Z,99796.08
2023-04-23T14:58:43.855Z,99792.20
2023-04-23T15:01:16.793Z,99793.11
2023-04-23T15:03:54.012Z,99791.41
2023-04-23T15:06:29.087Z,99793.58
2023-04-23T15:09:02.896Z,99790.19
2023-04-23T15:11:35.673Z,99779.77
2023-04-23T15:14:20.420Z,99778.19
2023-04-23T15:16:53.126Z,99790.13
2023-04-23T15:19:33.676Z,99782.38
2023-04-23T15:22:06.093Z,99774.61
2023-04-23T15:24:38.877Z,99769.55
2023-04-23T15:27:15.126Z,99769.55
2023-04-23T15:29:47.748Z,99776.04
2023-04-23T15:32:20.385Z,99777.12
2023-04-23T15:34:52.974Z,99768.41
2023-04-23T15:37:27.965Z,99769.45
2023-04-23T15:40:01.368Z,99762.44
2023-04-23T15:42:36.393Z,99754.68
2023-04-23T15:45:11.357Z,99769.88
2023-04-23T15:47:45.432Z,99766.73
2023-04-23T15:50:23.215Z,99762.92
2023-04-23T15:52:58.535Z,99762.11
2023-04-23T15:55:34.708Z,99756.22
2023-04-23T15:58:10.402Z,99758.88
2023-04-23T16:00:45.680Z,99751.56
2023-04-23T16:03:20.952Z,99750.06
2023-04-23T16:05:54.442Z,99753.02
2023-04-23T16:08:27.147Z,99747.28
2023-04-23T16:10:59.770Z,99751.02
2023-04-23T16:13:32.468Z,99753.03
2023-04-23T16:16:05.533Z,99745.19
2023-04-23T16:18:38.125Z,99747.19
2023-04-23T16:21:18.547Z,99751.78
2023-04-23T16:23:58.202Z,99749.41
2023-04-23T16:26:35.326Z,99746.99
2023-04-23T16:29:21.479Z,99742.20
2023-04-23T16:31:55.480Z,99743.48
2023-04-23T16:34:28.089Z,99741.14
2023-04-23T16:37:00.950Z,99744.95
2023-04-23T16:39:38.405Z,99741.77
2023-04-23T16:42:10.790Z,99743.98
2023-04-23T16:44:46.456Z,99735.71
2023-04-23T16:47:19.488Z,99738.76
2023-04-23T16:49:53.178Z,99744.56
2023-04-23T16:52:25.719Z,99739.73
2023-04-23T16:54:58.250Z,99736.75
2023-04-23T16:57:35.183Z,99729.30
2023-04-23T17:00:10.067Z,99737.78
2023-04-23T17:02:46.270Z,99737.52
2023-04-23T17:05:24.083Z,99729.23
2023-04-23T17:07:57.819Z,99734.37
2023-04-23T17:10:31.307Z,99730.61
2023-04-23T17:13:04.227Z,99729.50
2023-04-23T17:15:36.958Z,99729.19
2023-04-23T17:18:11.253Z,99730.61
2023-04-23T17:20:45.991Z,99723.35
2023-04-23T17:23:18.515Z,99719.58
2023-04-23T17:25:53.718Z,99723.81
2023-04-23T17:28:26.250Z,99721.91
2023-04-23T17:30:58.917Z,99721.05
2023-04-23T17:33:31.539Z,99723.66
2023-04-23T17:36:04.274Z,99724.45
2023-04-23T17:38:37.423Z,99724.34
2023-04-23T17:41:11.469Z,99719.00
2023-04-23T17:43:46.791Z,99715.45
2023-04-23T17:46:19.524Z,99717.34
2023-04-23T17:48:52.343Z,99708.57
2023-04-23T17:51:27.085Z,99712.83
2023-04-23T17:54:01.618Z,99711.79
2023-04-23T17:56:34.787Z,99712.45
2023-04-23T17:59:08.085Z,99709.70
2023-04-23T18:01:43.082Z,99716.55
2023-04-23T18:04:17.928Z,99723.50
2023-04-23T18:06:50.587Z,99720.80
2023-04-23T18:09:23.309Z,99715.53
2023-04-23T18:11:59.349Z,99724.29
2023-04-23T18:14:32.977Z,99721.56
2023-04-23T18:17:05.452Z,99725.78
2023-04-23T18:19:37.822Z,99725.53
2023-04-23T18:22:12.608Z,99726.98
2023-04-23T18:24:46.927Z,99727.48
2023-04-23T18:27:19.863Z,99730.64
2023-04-23T18:29:53.807Z,99732.97
2023-04-23T18:32:34.423Z,99729.95
2023-04-23T18:35:10.713Z,99724.27
2023-04-23T18:37:49.914Z,99722.03
2023-04-23T18:40:23.218Z,99724.95
2023-04-23T18:42:56.210Z,99727.87
2023-04-23T18:45:31.555Z,99724.50
2023-04-23T18:48:44.374Z,99720.52
2023-04-23T18:51:33.441Z,99726.03
2023-04-23T18:54:08.477Z,99719.22
2023-04-23T18:56:43.327Z,99723.69
2023-04-23T18:59:16.427Z,99718.63
2023-04-23T19:01:50.378Z,99721.50
2023-04-23T19:04:23.792Z,99720.00
2023-04-23T19:06:57.561Z,99720.19
2023-04-23T19:09:30.284Z,99715.14
2023-04-23T19:12:03.825Z,99729.19
2023-04-23T19:14:36.543Z,99724.93
2023-04-23T19:17:09.274Z,99725.05
2023-04-23T19:19:43.444Z,99722.50
2023-04-23T19:22:16.388Z,99719.91
2023-04-23T19:24:49.050Z,99728.74
2023-04-23T19:27:21.883Z,99713.10
2023-04-23T19:29:56.049Z,99721.03
2023-04-23T19:32:28.641Z,99720.27
2023-04-23T19:35:01.320Z,99722.94
2023-04-23T19:37:33.939Z,99715.20
2023-04-23T19:40:09.448Z,99713.58
2023-04-23T19:42:42.566Z,99711.98
2023-04-23T19:45:18.667Z,99719.06
2023-04-23T19:47:51.193Z,99719.14
2023-04-23T19:50:24.457Z,99718.34
2023-04-23T19:52:57.129Z,99712.30
2023-04-23T19:55:32.167Z,99715.00
2023-04-23T19:58:06.775Z,99715.98
2023-04-23T20:00:41.555Z,99711.77
2023-04-23T20:03:17.597Z,99714.50
2023-04-23T20:05:52.735Z,99707.69
2023-04-23T20:08:29.985Z,99706.09
2023-04-23T20:11:03.333Z,99704.53
2023-04-23T20:13:39.260Z,99699.44
2023-04-23T20:16:14.897Z,99706.55
2023-04-23T20:18:47.435Z,99709.35
2023-04-23T20:21:20.048Z,99701.70
2023-04-23T20:23:52.988Z,99699.16
2023-04-23T20:26:26.459Z,99705.34
2023-04-23T20:29:06.554Z,99707.24
2023-04-23T20:31:39.336Z,99702.07
2023-04-23T20:34:14.955Z,99694.27
2023-04-23T20:36:48.271Z,99701.20
2023-04-23T20:39:24.411Z,99700.36
2023-04-23T20:41:58.125Z,99700.36
2023-04-23T20:44:33.748Z,99701.38
2023-04-23T20:47:09.037Z,99699.08
2023-04-23T20:49:42.786Z,99723.59
2023-04-23T20:52:15.872Z,99736.89
2023-04-23T20:54:48.492Z,99718.67
2023-04-23T20:57:21.626Z,99717.94
2023-04-23T20:59:54.638Z,99719.03
2023-04-23T21:02:27.228Z,99729.02
2023-04-23T21:05:01.183Z,99731.11
2023-04-23T21:07:36.904Z,99719.96
2023-04-23T21:10:10.697Z,99706.98
2023-04-23T21:12:43.924Z,99704.51
2023-04-23T21:15:18.003Z,99728.33
2023-04-23T21:17:48.653Z,99733.00
2023-04-23T21:20:21.080Z,99735.07
2023-04-23T21:22:53.380Z,99714.34
2023-04-23T21:25:26.946Z,99713.73
2023-04-23T21:27:59.920Z,99726.40
2023-04-23T21:30:48.582Z,99722.41
2023-04-23T21:33:22.250Z,99715.67
2023-04-23T21:35:56.206Z,99712.47
2023-04-23T21:38:30.652Z,99698.78
2023-04-23T21:41:03.594Z,99697.25
2023-04-23T21:43:36.747Z,99701.82
2023-04-23T21:46:09.725Z,99696.73
2023-04-23T21:48:42.620Z,99690.00
2023-04-23T21:51:15.731Z,99689.42
2023-04-23T21:53:48.382Z,99687.86
2023-04-23T21:56:21.994Z,99688.90
2023-04-23T21:58:55.093Z,99678.61
2023-04-23T22:01:27.993Z,99683.17
2023-04-23T22:04:01.875Z,99678.08
2023-04-23T22:06:35.633Z,99684.35
2023-04-23T22:09:08.578Z,99691.58
2023-04-23T22:11:48.873Z,99694.30
2023-04-23T22:14:28.022Z,99707.64
2023-04-23T22:17:02.354Z,99710.39
2023-04-23T22:19:37.579Z,99701.73
2023-04-23T22:22:10.517Z,99700.12
2023-04-23T22:24:42.865Z,99697.66
2023-04-23T22:27:16.024Z,99698.75
2023-04-23T22:29:48.719Z,99701.63
2023-04-23T22:32:21.582Z,99697.42
2023-04-23T22:34:56.478Z,99697.50
2023-04-23T22:37:30.160Z,99694.12
2023-04-23T22:40:04.260Z,99692.48
2023-04-23T22:42:37.811Z,99689.09
2023-04-23T22:45:15.906Z,99686.56
2023-04-23T22:47:49.094Z,99689.22
2023-04-23T22:50:22.595Z,99687.58
2023-04-23T22:52:56.643Z,99686.79
2023-04-23T22:55:29.184Z,99685.07
2023-04-23T22:58:03.964Z,99681.59
2023-04-23T23:00:37.621Z,99682.48
2023-04-23T23:03:10.189Z,99683.42
2023-04-23T23:05:50.493Z,99678.26
2023-04-23T23:08:23.234Z,99682.66
2023-04-23T23:10:56.468Z,99685.28
2023-04-23T23:13:29.516Z,99673.16
2023-04-23T23:16:06.138Z,99668.85
2023-04-23T23:18:39.203Z,99664.58
2023-04-23T23:21:11.886Z,99666.36
2023-04-23T23:23:46.858Z,99660.32
2023-04-23T23:26:20.229Z,99664.75
2023-04-23T23:28:52.865Z,99670.04
2023-04-23T23:31:26.311Z,99665.77
2023-04-23T23:33:58.639Z,99657.95
2023-04-23T23:36:32.078Z,99659.80
2023-04-23T23:39:04.733Z,99656.45
2023-04-23T23:41:37.487Z,99655.82
2023-04-23T23:44:10.335Z,99648.20
2023-04-23T23:46:44.435Z,99640.60
2023-04-23T23:49:15.170Z,99645.13
2023-04-23T23:51:48.499Z,99647.02
2023-04-23T23:54:23.851Z,99648.06
2023-04-23T23:56:57.217Z,99640.58
2023-04-23T23:59:29.640Z,99635.58
